Time;durP1;ratioP1;P1;durP2;ratioP2;P2;SDS_P1;SDS_P2;PMS_P1;PMS_P2;Temp;Humidity;BMP_temperature;BMP_pressure;BME280_temperature;BME280_humidity;BME280_pressure;Samples;Min_cycle;Max_cycle;Signal;HPM_P1;HPM_P2
2022/03/25 00:01:36;;;;;;;;;;;10.80;36.50;;;;;;5015968;28;19917;-54
2022/03/25 00:04:01;;;;;;;;;;;10.70;36.10;;;;;;5015703;28;19910;-56
2022/03/25 00:06:27;;;;;;;;;;;10.70;36.40;;;;;;5015474;28;20008;-56
2022/03/25 00:08:52;;;;;;;;;;;10.70;37.10;;;;;;5015340;28;20015;-55
2022/03/25 00:11:18;;;;;;;;;;;10.80;36.60;;;;;;5015155;28;19913;-55
2022/03/25 00:13:44;;;;;;;;;;;10.70;36.20;;;;;;5015267;28;19920;-55
2022/03/25 00:16:09;;;;;;;;;;;10.70;35.70;;;;;;5015278;28;20424;-56
2022/03/25 00:18:35;;;;;;;;;;;10.70;35.80;;;;;;5015133;28;19916;-54
2022/03/25 00:21:00;;;;;;;;;;;10.60;36.20;;;;;;5015089;28;19909;-56
2022/03/25 00:23:26;;;;;;;;;;;10.70;35.50;;;;;;5015170;28;19915;-56
2022/03/25 00:25:52;;;;;;;;;;;10.70;35.40;;;;;;5015146;28;19909;-54
2022/03/25 00:28:19;;;;;;;;;;;10.80;35.40;;;;;;5014782;28;19909;-55
2022/03/25 00:30:44;;;;;;;;;;;10.90;35.50;;;;;;5014898;28;19920;-55
2022/03/25 00:33:10;;;;;;;;;;;11.10;34.50;;;;;;5014617;28;20297;-55
2022/03/25 00:35:35;;;;;;;;;;;11.20;34.10;;;;;;5014851;28;19940;-55
2022/03/25 00:38:01;;;;;;;;;;;11.30;33.40;;;;;;5014841;28;19945;-55
2022/03/25 00:40:27;;;;;;;;;;;11.40;33.10;;;;;;5015007;28;19948;-54
2022/03/25 00:42:52;;;;;;;;;;;11.30;33.30;;;;;;5014870;28;19920;-58
2022/03/25 00:45:18;;;;;;;;;;;11.40;33.30;;;;;;5014647;28;19921;-56
2022/03/25 00:47:43;;;;;;;;;;;11.40;33.00;;;;;;5014978;28;20400;-54
2022/03/25 00:50:10;;;;;;;;;;;11.50;32.80;;;;;;5014487;28;20265;-55
2022/03/25 00:52:36;;;;;;;;;;;11.60;32.50;;;;;;5014567;28;19934;-55
2022/03/25 00:55:02;;;;;;;;;;;11.70;32.50;;;;;;5014559;28;19910;-56
2022/03/25 00:57:28;;;;;;;;;;;11.70;33.20;;;;;;5014415;28;19909;-56
2022/03/25 00:59:53;;;;;;;;;;;11.60;33.00;;;;;;5014440;28;20024;-56
2022/03/25 01:02:19;;;;;;;;;;;11.70;33.00;;;;;;5014790;28;19909;-56
2022/03/25 01:04:45;;;;;;;;;;;11.60;33.10;;;;;;5013979;28;19910;-56
2022/03/25 01:07:10;;;;;;;;;;;11.60;33.00;;;;;;5014536;28;20412;-56
2022/03/25 01:09:36;;;;;;;;;;;11.60;32.80;;;;;;5014606;28;19914;-56
2022/03/25 01:12:02;;;;;;;;;;;11.70;32.30;;;;;;5014091;28;20388;-56
2022/03/25 01:14:27;;;;;;;;;;;11.70;32.00;;;;;;5014360;28;20349;-56
2022/03/25 01:16:53;;;;;;;;;;;11.70;31.80;;;;;;5014175;28;20292;-56
2022/03/25 01:19:20;;;;;;;;;;;11.90;31.50;;;;;;5014202;28;19916;-56
2022/03/25 01:21:46;;;;;;;;;;;11.90;31.20;;;;;;5013868;28;19909;-56
2022/03/25 01:24:12;;;;;;;;;;;11.90;31.00;;;;;;5014016;28;19925;-56
2022/03/25 01:26:39;;;;;;;;;;;12.00;30.90;;;;;;5014348;28;19917;-56
2022/03/25 01:29:05;;;;;;;;;;;11.90;30.70;;;;;;5014141;28;19910;-56
2022/03/25 01:31:30;;;;;;;;;;;11.90;30.90;;;;;;5014024;28;20020;-56
2022/03/25 01:33:56;;;;;;;;;;;12.00;30.80;;;;;;5013696;28;19983;-56
2022/03/25 01:36:22;;;;;;;;;;;11.90;30.90;;;;;;5014058;28;20008;-57
2022/03/25 01:38:47;;;;;;;;;;;11.80;31.10;;;;;;5013866;28;20304;-56
2022/03/25 01:41:17;;;;;;;;;;;11.70;31.50;;;;;;5014183;28;19910;-55
2022/03/25 01:43:51;;;;;;;;;;;11.60;32.00;;;;;;5014037;28;19914;-56
2022/03/25 01:46:17;;;;;;;;;;;11.50;32.70;;;;;;5013807;28;19956;-54
2022/03/25 01:48:43;;;;;;;;;;;11.70;32.20;;;;;;5013777;28;20293;-55
2022/03/25 01:51:08;;;;;;;;;;;11.70;31.50;;;;;;5013909;28;19914;-55
2022/03/25 01:53:34;;;;;;;;;;;11.80;31.50;;;;;;5013872;28;20327;-55
2022/03/25 01:56:00;;;;;;;;;;;11.80;30.80;;;;;;5013668;28;19910;-55
2022/03/25 01:58:27;;;;;;;;;;;11.80;31.30;;;;;;5013768;28;19963;-55
2022/03/25 02:00:52;;;;;;;;;;;11.60;31.80;;;;;;5013907;28;20286;-55
2022/03/25 02:03:18;;;;;;;;;;;11.50;32.00;;;;;;5013977;28;19931;-55
2022/03/25 02:05:44;;;;;;;;;;;11.50;31.70;;;;;;5013774;28;19932;-54
2022/03/25 02:08:10;;;;;;;;;;;11.60;32.00;;;;;;5013573;28;19916;-56
2022/03/25 02:10:36;;;;;;;;;;;11.50;32.70;;;;;;5012345;28;19989;-54
2022/03/25 02:13:02;;;;;;;;;;;11.40;33.50;;;;;;5013854;28;19928;-55
2022/03/25 02:15:35;;;;;;;;;;;11.10;34.30;;;;;;5013619;28;19913;-55
2022/03/25 02:18:05;;;;;;;;;;;11.30;33.70;;;;;;5016886;28;19910;-56
2022/03/25 02:20:31;;;;;;;;;;;11.50;32.20;;;;;;5017564;28;19909;-54
2022/03/25 02:22:57;;;;;;;;;;;11.70;31.60;;;;;;5017454;28;20391;-55
2022/03/25 02:25:23;;;;;;;;;;;11.70;31.50;;;;;;5017032;28;20005;-55
2022/03/25 02:27:49;;;;;;;;;;;11.70;31.60;;;;;;5017275;28;20341;-54
2022/03/25 02:30:14;;;;;;;;;;;11.70;31.60;;;;;;5017236;28;19937;-56
2022/03/25 02:32:40;;;;;;;;;;;11.70;31.70;;;;;;5017600;28;19922;-56
2022/03/25 02:35:06;;;;;;;;;;;11.70;31.70;;;;;;5017351;28;19964;-56
2022/03/25 02:37:32;;;;;;;;;;;11.70;31.70;;;;;;5017280;28;19981;-56
2022/03/25 02:39:57;;;;;;;;;;;11.70;31.70;;;;;;5017143;28;20365;-56
2022/03/25 02:42:23;;;;;;;;;;;11.70;32.40;;;;;;5017046;28;19913;-56
2022/03/25 02:44:49;;;;;;;;;;;11.70;32.10;;;;;;5016863;28;19909;-55
2022/03/25 02:47:15;;;;;;;;;;;11.60;32.30;;;;;;5016780;28;19909;-56
2022/03/25 02:49:40;;;;;;;;;;;11.70;32.10;;;;;;5017081;28;20254;-55
2022/03/25 02:52:06;;;;;;;;;;;11.70;32.20;;;;;;5016706;28;19925;-54
2022/03/25 02:54:32;;;;;;;;;;;11.70;32.10;;;;;;5016865;28;19910;-54
2022/03/25 02:56:58;;;;;;;;;;;11.60;32.50;;;;;;5016917;28;19909;-55
2022/03/25 02:59:25;;;;;;;;;;;11.50;33.20;;;;;;5016785;28;19920;-56
2022/03/25 03:01:51;;;;;;;;;;;11.40;33.70;;;;;;5016534;28;19964;-55
2022/03/25 03:04:17;;;;;;;;;;;11.20;34.10;;;;;;5016779;28;19914;-55
2022/03/25 03:06:43;;;;;;;;;;;11.40;34.00;;;;;;5016585;28;20000;-55
2022/03/25 03:09:09;;;;;;;;;;;11.30;34.20;;;;;;5016265;28;19959;-55
2022/03/25 03:11:35;;;;;;;;;;;11.20;34.70;;;;;;5016430;28;20357;-55
2022/03/25 03:14:01;;;;;;;;;;;11.10;35.50;;;;;;5016443;28;19916;-54
2022/03/25 03:16:27;;;;;;;;;;;11.00;35.30;;;;;;5016184;28;19909;-56
2022/03/25 03:18:52;;;;;;;;;;;10.90;36.00;;;;;;5016194;28;20319;-56
2022/03/25 03:21:20;;;;;;;;;;;10.90;35.90;;;;;;5016504;28;19909;-55
2022/03/25 03:23:46;;;;;;;;;;;10.90;35.80;;;;;;5016291;28;19913;-55
2022/03/25 03:26:12;;;;;;;;;;;11.10;35.70;;;;;;5016321;28;19913;-55
2022/03/25 03:28:37;;;;;;;;;;;10.90;36.10;;;;;;5015568;28;19910;-55
2022/03/25 03:31:03;;;;;;;;;;;10.80;36.50;;;;;;5020862;23;19932;-62
2022/03/25 03:33:28;;;;;;;;;;;10.70;37.20;;;;;;4998567;28;19957;-64
2022/03/25 03:35:54;;;;;;;;;;;10.60;37.40;;;;;;4998571;28;19909;-65
2022/03/25 03:38:19;;;;;;;;;;;10.60;37.90;;;;;;4998122;28;19957;-64
2022/03/25 03:40:45;;;;;;;;;;;10.60;37.80;;;;;;4998124;28;19914;-64
2022/03/25 03:43:11;;;;;;;;;;;10.60;38.00;;;;;;4998278;28;19917;-64
2022/03/25 03:45:36;;;;;;;;;;;10.70;38.10;;;;;;4998233;28;20016;-67
2022/03/25 03:48:02;;;;;;;;;;;10.60;38.80;;;;;;4998145;28;19910;-65
2022/03/25 03:50:27;;;;;;;;;;;10.60;39.00;;;;;;4997062;28;19965;-65
2022/03/25 03:52:53;;;;;;;;;;;10.50;39.10;;;;;;4997005;28;19925;-64
2022/03/25 03:55:18;;;;;;;;;;;10.40;39.30;;;;;;4997171;28;19917;-64
2022/03/25 03:57:44;;;;;;;;;;;10.20;40.30;;;;;;4998150;28;19917;-64
2022/03/25 04:00:11;;;;;;;;;;;10.20;40.80;;;;;;4997939;28;19925;-66
2022/03/25 04:02:36;;;;;;;;;;;10.30;40.70;;;;;;4998206;28;20001;-64
2022/03/25 04:05:02;;;;;;;;;;;10.30;40.80;;;;;;4998057;28;19941;-65
2022/03/25 04:07:28;;;;;;;;;;;10.40;40.30;;;;;;4997745;28;20402;-65
2022/03/25 04:09:53;;;;;;;;;;;10.40;40.20;;;;;;4998154;28;20358;-64
2022/03/25 04:12:19;;;;;;;;;;;10.40;40.60;;;;;;4998040;28;20365;-64
2022/03/25 04:14:45;;;;;;;;;;;10.40;40.60;;;;;;4997912;28;19909;-64
2022/03/25 04:17:11;;;;;;;;;;;10.60;39.70;;;;;;4997437;28;20403;-64
2022/03/25 04:19:36;;;;;;;;;;;10.70;39.20;;;;;;4997585;28;19932;-64
2022/03/25 04:22:02;;;;;;;;;;;11.00;37.90;;;;;;4997391;28;20354;-67
2022/03/25 04:24:28;;;;;;;;;;;11.80;35.20;;;;;;4997384;28;20350;-64
2022/03/25 04:26:54;;;;;;;;;;;12.40;33.20;;;;;;4997769;28;19916;-64
2022/03/25 04:29:19;;;;;;;;;;;12.80;32.20;;;;;;4996925;28;19913;-64
2022/03/25 04:31:45;;;;;;;;;;;13.10;31.40;;;;;;4996697;28;20305;-64
2022/03/25 04:34:10;;;;;;;;;;;13.40;30.70;;;;;;4997392;28;19910;-64
2022/03/25 04:36:36;;;;;;;;;;;13.70;30.10;;;;;;4996891;28;19961;-64
2022/03/25 04:39:02;;;;;;;;;;;13.70;30.00;;;;;;4996460;28;19910;-64
2022/03/25 04:41:28;;;;;;;;;;;13.70;30.00;;;;;;4996789;28;19910;-64
2022/03/25 04:43:53;;;;;;;;;;;13.70;29.90;;;;;;4997239;28;19910;-62
2022/03/25 04:46:19;;;;;;;;;;;13.70;29.90;;;;;;4996587;28;19910;-62
2022/03/25 04:48:44;;;;;;;;;;;13.80;29.90;;;;;;4996679;28;20000;-64
2022/03/25 04:51:10;;;;;;;;;;;13.80;29.80;;;;;;4996777;28;20381;-64
2022/03/25 04:53:36;;;;;;;;;;;13.80;29.70;;;;;;4996935;28;19972;-64
2022/03/25 04:56:02;;;;;;;;;;;13.90;29.40;;;;;;4996979;28;19909;-61
2022/03/25 04:58:28;;;;;;;;;;;13.90;29.40;;;;;;4996579;28;19917;-64
2022/03/25 05:00:53;;;;;;;;;;;13.70;30.90;;;;;;4996656;28;19910;-64
2022/03/25 05:03:19;;;;;;;;;;;13.40;30.90;;;;;;4996942;28;20004;-64
2022/03/25 05:05:45;;;;;;;;;;;13.20;31.40;;;;;;4996527;28;19916;-64
2022/03/25 05:08:10;;;;;;;;;;;12.90;32.40;;;;;;4996836;28;19932;-62
2022/03/25 05:10:37;;;;;;;;;;;12.70;33.20;;;;;;4997494;28;19963;-64
2022/03/25 05:13:04;;;;;;;;;;;12.30;34.80;;;;;;4996771;28;20009;-62
2022/03/25 05:15:30;;;;;;;;;;;12.10;35.60;;;;;;4996745;28;19941;-64
2022/03/25 05:17:55;;;;;;;;;;;11.80;36.50;;;;;;4995630;28;19914;-64
2022/03/25 05:20:21;;;;;;;;;;;11.70;36.80;;;;;;4996566;28;19910;-61
2022/03/25 05:22:47;;;;;;;;;;;11.70;36.40;;;;;;4996859;28;19937;-64
2022/03/25 05:25:14;;;;;;;;;;;11.80;36.20;;;;;;4996738;28;19910;-65
2022/03/25 05:27:49;;;;;;;;;;;11.70;36.60;;;;;;4996745;28;19910;-65
2022/03/25 05:30:18;;;;;;;;;;;11.70;36.80;;;;;;4996466;28;20020;-62
2022/03/25 05:32:43;;;;;;;;;;;11.60;37.40;;;;;;4996317;28;19918;-64
2022/03/25 05:35:09;;;;;;;;;;;11.40;38.20;;;;;;4996535;28;19916;-64
2022/03/25 05:37:36;;;;;;;;;;;11.50;38.00;;;;;;4996578;28;19921;-62
2022/03/25 05:40:01;;;;;;;;;;;11.70;36.50;;;;;;4996415;28;19910;-66
2022/03/25 05:42:27;;;;;;;;;;;11.80;35.10;;;;;;4996555;28;19963;-65
2022/03/25 05:44:52;;;;;;;;;;;11.90;35.20;;;;;;4996499;28;20391;-69
2022/03/25 05:47:18;;;;;;;;;;;12.00;35.10;;;;;;4996384;28;20016;-64
2022/03/25 05:49:43;;;;;;;;;;;12.00;35.40;;;;;;4999028;28;19921;-64
2022/03/25 05:52:09;;;;;;;;;;;11.90;36.40;;;;;;5002394;28;19918;-64
2022/03/25 05:54:34;;;;;;;;;;;11.80;35.50;;;;;;4999774;28;20374;-64
2022/03/25 05:57:00;;;;;;;;;;;12.00;32.50;;;;;;5000081;28;20277;-65
2022/03/25 05:59:25;;;;;;;;;;;12.60;30.10;;;;;;5001057;28;19973;-64
2022/03/25 06:01:51;;;;;;;;;;;13.00;29.40;;;;;;4999881;28;19965;-64
2022/03/25 06:04:17;;;;;;;;;;;13.30;28.80;;;;;;4999383;28;19963;-64
2022/03/25 06:06:42;;;;;;;;;;;13.60;28.10;;;;;;4999706;28;19957;-64
2022/03/25 06:09:08;;;;;;;;;;;13.70;28.00;;;;;;5000379;28;20324;-65
2022/03/25 06:11:33;;;;;;;;;;;13.80;27.90;;;;;;4999537;28;20384;-64
2022/03/25 06:13:59;;;;;;;;;;;13.90;27.60;;;;;;4999585;28;19987;-64
2022/03/25 06:16:25;;;;;;;;;;;14.00;27.30;;;;;;4999762;28;20204;-64
2022/03/25 06:18:52;;;;;;;;;;;14.00;27.20;;;;;;4999614;28;19964;-64
2022/03/25 06:21:20;;;;;;;;;;;14.10;27.40;;;;;;4999940;28;20420;-64
2022/03/25 06:23:45;;;;;;;;;;;14.10;27.40;;;;;;4999892;28;19914;-64
2022/03/25 06:26:11;;;;;;;;;;;14.10;27.10;;;;;;4999729;28;20281;-62
2022/03/25 06:28:37;;;;;;;;;;;14.20;26.80;;;;;;4999823;28;20381;-64
2022/03/25 06:31:02;;;;;;;;;;;14.40;26.60;;;;;;4999707;28;19925;-64
2022/03/25 06:33:28;;;;;;;;;;;14.60;27.10;;;;;;4999704;28;19916;-63
2022/03/25 06:35:53;;;;;;;;;;;15.00;31.90;;;;;;4999943;28;19910;-65
2022/03/25 06:38:19;;;;;;;;;;;15.30;29.80;;;;;;4999645;28;20055;-62
2022/03/25 06:40:44;;;;;;;;;;;15.60;26.90;;;;;;4999702;28;20290;-64
2022/03/25 06:43:10;;;;;;;;;;;15.80;27.50;;;;;;4999365;28;19956;-65
2022/03/25 06:45:36;;;;;;;;;;;16.00;26.10;;;;;;4999088;28;19909;-64
2022/03/25 06:48:01;;;;;;;;;;;16.10;26.60;;;;;;4999029;28;20329;-63
2022/03/25 06:50:27;;;;;;;;;;;16.30;27.40;;;;;;4999422;28;19964;-63
2022/03/25 06:52:53;;;;;;;;;;;16.40;26.70;;;;;;4999231;28;20020;-63
2022/03/25 06:55:19;;;;;;;;;;;16.40;26.60;;;;;;4999054;28;19910;-63
2022/03/25 06:57:45;;;;;;;;;;;16.50;25.60;;;;;;4998894;28;19977;-65
2022/03/25 07:00:12;;;;;;;;;;;16.60;26.00;;;;;;4998631;28;19910;-62
2022/03/25 07:02:39;;;;;;;;;;;16.70;26.10;;;;;;4998446;28;19914;-62
2022/03/25 07:05:05;;;;;;;;;;;16.80;24.70;;;;;;4999085;28;19909;-64
2022/03/25 07:07:33;;;;;;;;;;;16.80;26.50;;;;;;4999009;28;19996;-66
2022/03/25 07:09:59;;;;;;;;;;;16.90;24.80;;;;;;4998986;28;19909;-64
2022/03/25 07:12:25;;;;;;;;;;;16.90;25.50;;;;;;4999061;28;20525;-63
2022/03/25 07:14:50;;;;;;;;;;;16.70;29.10;;;;;;4999157;28;19917;-64
2022/03/25 07:17:16;;;;;;;;;;;16.80;29.50;;;;;;4998666;28;19949;-63
2022/03/25 07:19:41;;;;;;;;;;;17.00;30.00;;;;;;4998948;28;19961;-62
2022/03/25 07:22:08;;;;;;;;;;;17.20;29.30;;;;;;4998996;28;19910;-61
2022/03/25 07:24:33;;;;;;;;;;;17.30;28.10;;;;;;4998555;28;19917;-63
2022/03/25 07:26:59;;;;;;;;;;;17.20;27.50;;;;;;4998337;28;19953;-64
2022/03/25 07:29:24;;;;;;;;;;;16.80;27.70;;;;;;4998055;28;19933;-63
2022/03/25 07:31:50;;;;;;;;;;;16.70;29.00;;;;;;4997509;28;19982;-63
2022/03/25 07:34:15;;;;;;;;;;;16.40;28.30;;;;;;4998055;28;19941;-63
2022/03/25 07:36:41;;;;;;;;;;;16.20;29.40;;;;;;4998089;28;19910;-63
2022/03/25 07:39:06;;;;;;;;;;;15.90;28.70;;;;;;4997745;28;19956;-65
2022/03/25 07:41:32;;;;;;;;;;;15.90;29.20;;;;;;4997551;28;20369;-63
2022/03/25 07:43:58;;;;;;;;;;;16.10;29.30;;;;;;4997265;28;20345;-63
2022/03/25 07:46:23;;;;;;;;;;;16.30;28.30;;;;;;4997226;28;19910;-63
2022/03/25 07:48:49;;;;;;;;;;;16.40;28.50;;;;;;4997288;28;19910;-64
2022/03/25 07:51:15;;;;;;;;;;;16.70;29.10;;;;;;4997708;28;20397;-65
2022/03/25 07:53:40;;;;;;;;;;;16.90;27.90;;;;;;4997410;28;19921;-64
2022/03/25 07:56:06;;;;;;;;;;;17.10;28.50;;;;;;4997690;28;20361;-62
2022/03/25 07:58:32;;;;;;;;;;;16.90;27.50;;;;;;4997189;28;20313;-64
2022/03/25 08:00:58;;;;;;;;;;;17.00;28.10;;;;;;4997235;28;19910;-63
2022/03/25 08:03:23;;;;;;;;;;;16.90;28.40;;;;;;4997313;28;19952;-63
2022/03/25 08:05:50;;;;;;;;;;;17.10;30.00;;;;;;4996904;28;19914;-63
2022/03/25 08:08:18;;;;;;;;;;;17.30;29.20;;;;;;4997115;28;20138;-66
2022/03/25 08:10:43;;;;;;;;;;;17.30;29.10;;;;;;4996280;28;19914;-68
2022/03/25 08:13:10;;;;;;;;;;;17.20;30.50;;;;;;4995307;28;19972;-63
2022/03/25 08:15:36;;;;;;;;;;;17.30;31.40;;;;;;4995624;28;19914;-63
2022/03/25 08:18:03;;;;;;;;;;;17.40;32.40;;;;;;4995662;28;19910;-62
2022/03/25 08:20:36;;;;;;;;;;;17.10;32.00;;;;;;4996169;28;19957;-63
2022/03/25 08:23:02;;;;;;;;;;;16.80;33.00;;;;;;4996398;28;20258;-60
2022/03/25 08:28:13;;;;;;;;;;;16.90;34.40;;;;;;4997109;28;19965;-63
2022/03/25 08:30:39;;;;;;;;;;;17.10;34.70;;;;;;4996901;28;19965;-62
2022/03/25 08:33:05;;;;;;;;;;;17.00;35.40;;;;;;4996964;28;19925;-63
2022/03/25 08:35:31;;;;;;;;;;;17.20;35.60;;;;;;4999203;28;19913;-59
2022/03/25 08:37:57;;;;;;;;;;;17.10;34.10;;;;;;4998521;28;19968;-62
2022/03/25 08:40:27;;;;;;;;;;;17.00;34.80;;;;;;4996342;28;19964;-66
2022/03/25 08:42:52;;;;;;;;;;;16.90;35.80;;;;;;4995764;28;20385;-60
2022/03/25 08:45:18;;;;;;;;;;;16.90;34.60;;;;;;4996411;28;19920;-65
2022/03/25 08:47:44;;;;;;;;;;;16.90;35.20;;;;;;4996844;28;20281;-68
2022/03/25 08:50:12;;;;;;;;;;;17.20;36.20;;;;;;4995533;28;20369;-59
2022/03/25 08:52:41;;;;;;;;;;;17.30;34.70;;;;;;4996229;28;19918;-60
2022/03/25 08:55:08;;;;;;;;;;;17.40;34.40;;;;;;4996591;28;19960;-59
2022/03/25 08:57:34;;;;;;;;;;;17.60;34.40;;;;;;4996909;28;20397;-60
2022/03/25 08:59:59;;;;;;;;;;;17.80;34.40;;;;;;4996932;28;19910;-62
2022/03/25 09:02:25;;;;;;;;;;;17.90;32.70;;;;;;4996482;28;20293;-59
2022/03/25 09:04:50;;;;;;;;;;;17.50;32.50;;;;;;4996755;28;19910;-61
2022/03/25 09:07:16;;;;;;;;;;;17.40;33.00;;;;;;4996597;28;19914;-61
2022/03/25 09:09:42;;;;;;;;;;;17.30;33.50;;;;;;4996372;28;19964;-60
2022/03/25 09:12:08;;;;;;;;;;;17.50;32.90;;;;;;4996978;28;19918;-60
2022/03/25 09:14:34;;;;;;;;;;;17.50;32.90;;;;;;4996620;28;19910;-60
2022/03/25 09:17:00;;;;;;;;;;;17.40;32.10;;;;;;4996400;28;19963;-67
2022/03/25 09:19:26;;;;;;;;;;;17.60;32.10;;;;;;4996442;28;20007;-60
2022/03/25 09:21:51;;;;;;;;;;;17.60;31.20;;;;;;4996305;28;19925;-58
2022/03/25 09:24:17;;;;;;;;;;;17.70;31.80;;;;;;4996110;28;20334;-66
2022/03/25 09:26:42;;;;;;;;;;;17.80;31.60;;;;;;4995883;28;19910;-60
2022/03/25 09:29:08;;;;;;;;;;;17.70;30.70;;;;;;4996540;28;19946;-59
2022/03/25 09:31:34;;;;;;;;;;;17.90;37.20;;;;;;4996033;28;19929;-61
2022/03/25 09:36:43;;;;;;;;;;;18.40;34.10;;;;;;4996123;28;20441;-59
2022/03/25 09:39:09;;;;;;;;;;;18.50;31.60;;;;;;4995716;28;19934;-59
2022/03/25 09:41:34;;;;;;;;;;;18.50;31.40;;;;;;4995969;28;19910;-59
2022/03/25 09:44:00;;;;;;;;;;;18.30;30.60;;;;;;4995994;28;20285;-57
2022/03/25 09:46:26;;;;;;;;;;;18.40;31.50;;;;;;4994948;28;19910;-59
2022/03/25 09:48:51;;;;;;;;;;;18.50;35.40;;;;;;4996054;28;19910;-59
2022/03/25 09:51:17;;;;;;;;;;;18.60;32.30;;;;;;4996011;28;20365;-58
2022/03/25 09:53:43;;;;;;;;;;;18.50;31.30;;;;;;4996716;28;20333;-62
2022/03/25 09:56:09;;;;;;;;;;;18.50;30.80;;;;;;4995249;28;19929;-60
2022/03/25 09:58:34;;;;;;;;;;;18.30;29.30;;;;;;4994808;28;19914;-61
2022/03/25 10:01:00;;;;;;;;;;;18.30;29.60;;;;;;4995770;28;19910;-61
2022/03/25 10:03:30;;;;;;;;;;;18.40;30.60;;;;;;4994312;28;19917;-61
2022/03/25 10:05:58;;;;;;;;;;;18.20;29.10;;;;;;4995727;28;19909;-60
2022/03/25 10:08:30;;;;;;;;;;;18.10;29.10;;;;;;4995575;28;20281;-62
2022/03/25 10:10:56;;;;;;;;;;;18.10;30.00;;;;;;4995698;28;19973;-61
2022/03/25 10:13:21;;;;;;;;;;;18.30;30.10;;;;;;4995771;28;19953;-60
2022/03/25 10:15:47;;;;;;;;;;;18.30;28.90;;;;;;4995714;28;19996;-58
2022/03/25 10:18:12;;;;;;;;;;;18.40;29.40;;;;;;4995713;28;19984;-63
2022/03/25 10:20:38;;;;;;;;;;;18.60;29.00;;;;;;4995821;28;19965;-59
2022/03/25 10:23:10;;;;;;;;;;;18.80;28.60;;;;;;4997259;28;19910;-59
2022/03/25 10:25:37;;;;;;;;;;;18.50;27.80;;;;;;4996074;28;19925;-58
2022/03/25 10:28:04;;;;;;;;;;;18.60;28.90;;;;;;4995310;28;19952;-59
2022/03/25 10:30:34;;;;;;;;;;;18.70;28.60;;;;;;4995234;28;19918;-62
2022/03/25 10:33:07;;;;;;;;;;;18.90;28.30;;;;;;4995718;28;19918;-59
2022/03/25 10:35:34;;;;;;;;;;;19.00;27.80;;;;;;4995670;28;19910;-58
2022/03/25 10:37:59;;;;;;;;;;;19.10;27.30;;;;;;4996916;28;19910;-61
2022/03/25 10:40:25;;;;;;;;;;;19.20;27.90;;;;;;5004605;28;19917;-61
2022/03/25 10:43:04;;;;;;;;;;;19.20;26.70;;;;;;5005896;28;19948;-61
2022/03/25 10:45:30;;;;;;;;;;;19.30;26.90;;;;;;5004845;28;19916;-59
2022/03/25 10:48:12;;;;;;;;;;;19.30;26.50;;;;;;5000629;28;19960;-63
2022/03/25 10:50:53;;;;;;;;;;;19.10;26.50;;;;;;5000393;28;19910;-58
2022/03/25 10:53:21;;;;;;;;;;;18.90;26.40;;;;;;4999066;28;19917;-59
2022/03/25 10:55:54;;;;;;;;;;;18.80;26.70;;;;;;4998137;28;19910;-60
2022/03/25 10:58:19;;;;;;;;;;;18.80;27.30;;;;;;4998163;28;19910;-61
2022/03/25 11:00:45;;;;;;;;;;;18.90;26.90;;;;;;4998601;28;19913;-61
2022/03/25 11:03:14;;;;;;;;;;;18.80;27.80;;;;;;4998589;28;19910;-60
2022/03/25 11:05:39;;;;;;;;;;;18.70;27.80;;;;;;4998267;28;19913;-61
2022/03/25 11:08:05;;;;;;;;;;;18.40;28.60;;;;;;4998581;28;20009;-61
2022/03/25 11:10:32;;;;;;;;;;;18.10;29.20;;;;;;4998546;28;20000;-61
2022/03/25 11:12:58;;;;;;;;;;;18.10;29.50;;;;;;4997849;28;19918;-61
2022/03/25 11:15:24;;;;;;;;;;;18.30;29.60;;;;;;4998515;28;20385;-60
2022/03/25 11:17:50;;;;;;;;;;;18.30;29.80;;;;;;4998449;28;19909;-60
2022/03/25 11:20:19;;;;;;;;;;;18.10;31.30;;;;;;4998860;28;20285;-60
2022/03/25 11:23:03;;;;;;;;;;;18.30;31.70;;;;;;4998743;28;19910;-60
2022/03/25 11:25:30;;;;;;;;;;;18.10;33.70;;;;;;4998116;28;19910;-62
2022/03/25 11:28:07;;;;;;;;;;;17.80;32.10;;;;;;4998270;28;19914;-60
2022/03/25 11:30:35;;;;;;;;;;;17.40;33.30;;;;;;4998261;28;19968;-60
2022/03/25 11:33:06;;;;;;;;;;;17.40;32.00;;;;;;4997919;28;19953;-60
2022/03/25 11:35:32;;;;;;;;;;;17.50;31.30;;;;;;4997806;28;19917;-60
2022/03/25 11:38:13;;;;;;;;;;;17.40;29.80;;;;;;4997694;28;19910;-60
2022/03/25 11:40:45;;;;;;;;;;;17.50;29.40;;;;;;4997992;28;19910;-60
2022/03/25 11:43:12;;;;;;;;;;;17.50;29.40;;;;;;4997477;28;19910;-60
2022/03/25 11:45:38;;;;;;;;;;;17.70;28.90;;;;;;4997126;28;20004;-60
2022/03/25 11:48:04;;;;;;;;;;;17.60;27.90;;;;;;4997488;28;19957;-60
2022/03/25 11:50:30;;;;;;;;;;;17.60;27.20;;;;;;4997737;28;19914;-60
2022/03/25 11:52:57;;;;;;;;;;;17.40;26.60;;;;;;4997490;28;20016;-61
2022/03/25 11:55:23;;;;;;;;;;;17.30;27.10;;;;;;4997559;28;19910;-64
2022/03/25 11:57:49;;;;;;;;;;;17.40;26.80;;;;;;4997549;28;19910;-60
2022/03/25 12:00:41;;;;;;;;;;;17.80;26.40;;;;;;4997302;28;19931;-60
2022/03/25 12:03:06;;;;;;;;;;;18.10;26.10;;;;;;4998216;28;20317;-62
2022/03/25 12:05:33;;;;;;;;;;;18.60;25.80;;;;;;4997790;28;19910;-60
2022/03/25 12:08:17;;;;;;;;;;;18.70;25.60;;;;;;4997408;28;19917;-72
2022/03/25 12:10:43;;;;;;;;;;;19.10;25.50;;;;;;4997523;28;19914;-72
2022/03/25 12:13:08;;;;;;;;;;;19.40;26.00;;;;;;4997526;28;20401;-70
2022/03/25 12:15:41;;;;;;;;;;;19.50;25.80;;;;;;4997887;28;20324;-67
2022/03/25 12:18:25;;;;;;;;;;;19.50;25.10;;;;;;4996334;28;20381;-61
2022/03/25 12:20:50;;;;;;;;;;;19.00;25.60;;;;;;4997390;28;19910;-61
2022/03/25 12:23:16;;;;;;;;;;;18.70;24.90;;;;;;4997973;28;20385;-73
2022/03/25 12:25:45;;;;;;;;;;;18.60;24.60;;;;;;4998182;28;19910;-60
2022/03/25 12:28:10;;;;;;;;;;;18.50;24.30;;;;;;4996607;28;20004;-66
2022/03/25 12:30:36;;;;;;;;;;;18.50;24.00;;;;;;4996549;28;19918;-67
2022/03/25 12:33:06;;;;;;;;;;;18.20;23.60;;;;;;4997260;28;19918;-59
2022/03/25 12:35:33;;;;;;;;;;;18.30;23.50;;;;;;4997659;28;20286;-62
2022/03/25 12:38:11;;;;;;;;;;;18.20;23.40;;;;;;4996706;28;20375;-62
2022/03/25 12:40:37;;;;;;;;;;;18.20;23.40;;;;;;4996759;28;19945;-66
2022/03/25 12:43:11;;;;;;;;;;;18.20;23.50;;;;;;4995681;28;20297;-62
2022/03/25 12:45:36;;;;;;;;;;;18.40;24.60;;;;;;4993662;28;19917;-62
2022/03/25 12:48:09;;;;;;;;;;;18.50;23.20;;;;;;4995169;28;20017;-63
2022/03/25 12:50:35;;;;;;;;;;;18.60;23.10;;;;;;4996659;28;19910;-60
2022/03/25 12:53:01;;;;;;;;;;;18.40;23.40;;;;;;4996721;28;20308;-62
2022/03/25 12:55:28;;;;;;;;;;;18.40;22.80;;;;;;4997643;28;20309;-63
2022/03/25 12:58:00;;;;;;;;;;;18.30;22.60;;;;;;4996483;28;19913;-61
2022/03/25 13:00:30;;;;;;;;;;;18.30;23.20;;;;;;4996348;28;19922;-63
2022/03/25 13:02:56;;;;;;;;;;;18.40;22.80;;;;;;4996005;28;20362;-61
2022/03/25 13:05:24;;;;;;;;;;;18.70;22.60;;;;;;4992905;28;19910;-61
2022/03/25 13:07:52;;;;;;;;;;;18.80;23.30;;;;;;4994854;28;20439;-76
2022/03/25 13:10:18;;;;;;;;;;;18.90;22.20;;;;;;4994863;28;19916;-69
2022/03/25 13:12:45;;;;;;;;;;;18.70;21.90;;;;;;4995395;28;19918;-77
2022/03/25 13:15:11;;;;;;;;;;;18.70;21.90;;;;;;4995481;28;19910;-66
2022/03/25 13:17:38;;;;;;;;;;;18.70;21.70;;;;;;4995326;28;20001;-61
2022/03/25 13:20:08;;;;;;;;;;;18.80;21.90;;;;;;4994910;28;19944;-66
2022/03/25 13:22:35;;;;;;;;;;;18.80;22.10;;;;;;4995485;28;19921;-75
2022/03/25 13:25:00;;;;;;;;;;;18.70;22.50;;;;;;4995222;28;19917;-62
2022/03/25 13:27:26;;;;;;;;;;;18.60;22.00;;;;;;4994082;28;20024;-72
2022/03/25 13:29:52;;;;;;;;;;;18.60;22.20;;;;;;4995689;28;19949;-70
2022/03/25 13:32:31;;;;;;;;;;;18.70;22.70;;;;;;4995517;28;19922;-73
2022/03/25 13:35:01;;;;;;;;;;;18.60;22.70;;;;;;4995565;28;20000;-74
2022/03/25 13:37:26;;;;;;;;;;;18.50;22.80;;;;;;4995674;28;20393;-62
2022/03/25 13:39:52;;;;;;;;;;;18.30;22.80;;;;;;4995375;28;19910;-65
2022/03/25 13:42:17;;;;;;;;;;;18.20;23.80;;;;;;4995234;28;19953;-76
2022/03/25 13:44:43;;;;;;;;;;;18.20;23.20;;;;;;4995438;28;19910;-72
2022/03/25 13:47:10;;;;;;;;;;;18.10;23.00;;;;;;4995222;28;19910;-64
2022/03/25 13:49:36;;;;;;;;;;;18.20;23.50;;;;;;4994987;28;20436;-68
2022/03/25 13:52:05;;;;;;;;;;;18.40;23.20;;;;;;4995177;28;19961;-72
2022/03/25 13:54:31;;;;;;;;;;;18.50;23.20;;;;;;4995125;28;20378;-65
2022/03/25 13:57:04;;;;;;;;;;;18.50;23.30;;;;;;4995309;28;19929;-63
2022/03/25 13:59:39;;;;;;;;;;;18.70;23.80;;;;;;4995428;28;20402;-80
2022/03/25 14:02:26;;;;;;;;;;;18.80;22.80;;;;;;4995587;28;19910;-62
2022/03/25 14:04:52;;;;;;;;;;;18.90;24.40;;;;;;4996825;28;19910;-61
2022/03/25 14:07:24;;;;;;;;;;;19.00;22.10;;;;;;4994737;28;19910;-63
2022/03/25 14:09:53;;;;;;;;;;;19.10;22.30;;;;;;4994142;28;19917;-75
2022/03/25 14:12:22;;;;;;;;;;;18.90;21.50;;;;;;4995314;28;20322;-68
2022/03/25 14:15:06;;;;;;;;;;;18.90;22.10;;;;;;4999026;28;20316;-70
2022/03/25 14:17:32;;;;;;;;;;;18.70;22.20;;;;;;4998370;28;19909;-69
2022/03/25 14:19:59;;;;;;;;;;;18.70;22.00;;;;;;4998344;28;19910;-66